Time;durP1;ratioP1;P1;durP2;ratioP2;P2;SDS_P1;SDS_P2;PMS_P1;PMS_P2;Temp;Humidity;BMP_temperature;BMP_pressure;BME280_temperature;BME280_humidity;BME280_pressure;Samples;Min_cycle;Max_cycle;Signal;HPM_P1;HPM_P2
2022/04/14 00:00:49;;;;;;;14.37;8.50;;;12.10;60.20;;;;;;4944899;28;20201;-80
2022/04/14 00:03:19;;;;;;;24.00;8.67;;;12.10;60.40;;;;;;4945141;28;20214;-81
2022/04/14 00:05:48;;;;;;;14.93;8.37;;;12.10;60.50;;;;;;4946873;28;20198;-81
2022/04/14 00:08:16;;;;;;;16.00;8.87;;;12.10;60.60;;;;;;4946743;28;20703;-82
2022/04/14 00:10:45;;;;;;;18.17;8.73;;;12.00;60.50;;;;;;4945364;28;20766;-80
2022/04/14 00:13:16;;;;;;;15.07;8.70;;;12.00;60.40;;;;;;4945325;28;20195;-80
2022/04/14 00:15:45;;;;;;;16.30;9.00;;;12.00;60.50;;;;;;4944097;28;20722;-79
2022/04/14 00:18:13;;;;;;;13.17;8.03;;;12.00;60.70;;;;;;4945411;28;20749;-79
2022/04/14 00:20:42;;;;;;;15.10;7.97;;;12.00;61.00;;;;;;4945451;28;20357;-80
2022/04/14 00:23:10;;;;;;;20.37;9.57;;;12.00;60.80;;;;;;4946140;28;20209;-80
2022/04/14 00:25:39;;;;;;;17.83;8.73;;;11.90;60.80;;;;;;4944302;28;20202;-80
2022/04/14 00:28:07;;;;;;;17.23;8.57;;;11.90;60.80;;;;;;4945819;28;20202;-80
2022/04/14 00:30:38;;;;;;;16.50;8.67;;;11.90;60.90;;;;;;4946823;28;20296;-80
2022/04/14 00:33:07;;;;;;;13.20;8.57;;;11.90;61.20;;;;;;4945815;28;20205;-81
2022/04/14 00:35:35;;;;;;;10.60;6.77;;;11.90;61.30;;;;;;4946712;28;20211;-80
2022/04/14 00:38:04;;;;;;;17.90;9.13;;;11.90;61.10;;;;;;4946114;28;20205;-81
2022/04/14 00:40:33;;;;;;;19.20;8.87;;;11.90;61.10;;;;;;4949569;28;20206;-79
2022/04/14 00:43:01;;;;;;;15.13;8.03;;;11.90;61.50;;;;;;4947957;28;20241;-79
2022/04/14 00:45:30;;;;;;;16.83;8.73;;;11.90;61.50;;;;;;4950223;28;20774;-81
2022/04/14 00:48:00;;;;;;;19.23;9.40;;;11.80;61.30;;;;;;4948749;28;20706;-80
2022/04/14 00:50:29;;;;;;;14.53;8.43;;;11.80;61.30;;;;;;4948302;28;20210;-79
2022/04/14 00:52:57;;;;;;;14.70;8.07;;;11.80;61.30;;;;;;4948256;28;20202;-79
2022/04/14 00:55:26;;;;;;;14.53;8.10;;;11.80;61.60;;;;;;4949884;28;20283;-80
2022/04/14 00:57:55;;;;;;;18.10;8.70;;;11.80;61.50;;;;;;4950242;28;20915;-80
2022/04/14 01:00:24;;;;;;;15.43;8.63;;;11.80;61.70;;;;;;4949534;28;20919;-83
2022/04/14 01:02:54;;;;;;;13.20;7.47;;;11.70;61.70;;;;;;4949247;28;20198;-81
2022/04/14 01:05:26;;;;;;;14.70;9.17;;;11.70;62.00;;;;;;4949420;28;20208;-81
2022/04/14 01:07:57;;;;;;;18.70;8.57;;;11.70;62.90;;;;;;4947039;28;20195;-80
2022/04/14 01:10:27;;;;;;;18.80;8.63;;;11.70;62.20;;;;;;4949070;28;20214;-82
2022/04/14 01:12:55;;;;;;;16.83;8.53;;;11.70;62.30;;;;;;4948923;28;20218;-81
2022/04/14 01:15:24;;;;;;;16.67;8.77;;;11.60;62.20;;;;;;4950200;28;20197;-81
2022/04/14 01:17:52;;;;;;;15.73;7.90;;;11.60;62.20;;;;;;4947817;28;20212;-81
2022/04/14 01:20:21;;;;;;;15.83;8.50;;;11.60;62.50;;;;;;4949254;28;20244;-80
2022/04/14 01:22:57;;;;;;;14.53;8.00;;;11.60;62.50;;;;;;4949571;28;20241;-80
2022/04/14 01:25:28;;;;;;;17.23;8.60;;;11.60;62.70;;;;;;4949553;28;20202;-81
2022/04/14 01:27:57;;;;;;;23.57;8.83;;;11.50;62.80;;;;;;4950437;28;20288;-81
2022/04/14 01:30:25;;;;;;;15.67;8.93;;;11.50;62.80;;;;;;4947632;28;20233;-80
2022/04/14 01:32:54;;;;;;;19.17;8.77;;;11.50;62.90;;;;;;4948966;28;20210;-78
2022/04/14 01:35:23;;;;;;;17.73;8.67;;;11.50;63.10;;;;;;4948281;28;20671;-80
2022/04/14 01:37:52;;;;;;;14.73;9.07;;;11.50;63.20;;;;;;4947308;28;20564;-79
2022/04/14 01:40:20;;;;;;;19.27;10.40;;;11.50;63.20;;;;;;4946893;28;20381;-79
2022/04/14 01:42:50;;;;;;;15.97;8.87;;;11.50;63.30;;;;;;4949559;28;20622;-79
2022/04/14 01:45:19;;;;;;;18.40;8.87;;;11.50;63.30;;;;;;4947497;28;20193;-80
2022/04/14 01:47:48;;;;;;;15.30;9.03;;;11.40;63.10;;;;;;4949803;28;20226;-79
2022/04/14 01:50:18;;;;;;;16.80;8.93;;;11.40;63.20;;;;;;4948760;28;20312;-83
2022/04/14 01:52:47;;;;;;;13.80;8.97;;;11.40;63.40;;;;;;4949050;28;20202;-80
2022/04/14 01:55:15;;;;;;;15.53;8.70;;;11.40;63.40;;;;;;4948770;28;20276;-82
2022/04/14 01:57:44;;;;;;;17.23;8.30;;;11.40;63.50;;;;;;4949286;28;20206;-81
2022/04/14 02:00:16;;;;;;;12.27;8.60;;;11.40;63.50;;;;;;4949272;28;20202;-81
2022/04/14 02:02:44;;;;;;;14.50;8.37;;;11.40;63.90;;;;;;4948981;28;20696;-79
2022/04/14 02:05:13;;;;;;;16.10;8.30;;;11.30;63.80;;;;;;4948883;28;20979;-80
2022/04/14 02:07:41;;;;;;;17.83;9.43;;;11.30;63.80;;;;;;4948171;28;20204;-80
2022/04/14 02:10:12;;;;;;;16.93;8.07;;;11.30;63.80;;;;;;4946780;28;20221;-81
2022/04/14 02:12:41;;;;;;;14.97;8.50;;;11.30;63.90;;;;;;4947645;28;20210;-80
2022/04/14 02:15:10;;;;;;;17.37;8.07;;;11.30;63.90;;;;;;4947428;28;20238;-80
2022/04/14 02:17:42;;;;;;;17.10;8.87;;;11.20;63.90;;;;;;4946565;28;20204;-80
2022/04/14 02:20:11;;;;;;;15.90;8.13;;;11.20;64.00;;;;;;4947829;28;20194;-80
2022/04/14 02:22:41;;;;;;;15.20;9.13;;;11.20;64.10;;;;;;4948443;28;20723;-80
2022/04/14 02:25:10;;;;;;;17.63;8.17;;;11.20;64.00;;;;;;4947251;28;20208;-80
2022/04/14 02:27:39;;;;;;;17.20;7.90;;;11.20;64.40;;;;;;4946472;28;20857;-80
2022/04/14 02:30:08;;;;;;;14.00;7.77;;;11.10;64.10;;;;;;4944189;28;20214;-81
2022/04/14 02:32:37;;;;;;;15.00;8.07;;;11.10;64.10;;;;;;4947587;28;20321;-80
2022/04/14 02:35:07;;;;;;;14.00;8.10;;;11.10;64.10;;;;;;4948999;28;20206;-80
2022/04/14 02:37:36;;;;;;;18.67;8.00;;;11.10;64.30;;;;;;4946740;28;20206;-81
2022/04/14 02:40:05;;;;;;;14.87;8.40;;;11.00;64.20;;;;;;4947820;28;20199;-79
2022/04/14 02:42:34;;;;;;;22.50;8.50;;;11.00;64.30;;;;;;4948115;28;20194;-80
2022/04/14 02:45:02;;;;;;;19.17;8.43;;;11.00;64.20;;;;;;4947068;28;20199;-80
2022/04/14 02:47:30;;;;;;;19.55;8.80;;;11.00;64.10;;;;;;4947351;28;20954;-82
2022/04/14 02:49:59;;;;;;;19.37;8.57;;;11.00;64.70;;;;;;4947765;28;20221;-80
2022/04/14 02:52:30;;;;;;;22.30;8.43;;;10.90;64.80;;;;;;4946162;28;20201;-79
2022/04/14 02:54:59;;;;;;;20.97;7.90;;;10.90;64.80;;;;;;4945408;28;20244;-80
2022/04/14 02:57:28;;;;;;;17.47;8.60;;;10.90;64.70;;;;;;4946436;28;20614;-81
2022/04/14 02:59:57;;;;;;;24.30;8.63;;;10.90;64.70;;;;;;4946446;28;20198;-79
2022/04/14 03:02:25;;;;;;;16.00;8.20;;;10.90;64.90;;;;;;4946476;28;20202;-81
2022/04/14 03:04:54;;;;;;;21.50;8.93;;;10.80;64.80;;;;;;4947252;28;20205;-80
2022/04/14 03:07:22;;;;;;;22.40;9.53;;;10.80;64.80;;;;;;4947190;28;20304;-79
2022/04/14 03:09:52;;;;;;;22.90;9.00;;;10.80;65.00;;;;;;4945911;28;20219;-79
2022/04/14 03:12:21;;;;;;;24.33;8.70;;;10.70;65.00;;;;;;4945270;28;20206;-80
2022/04/14 03:14:49;;;;;;;19.90;8.67;;;10.70;65.00;;;;;;4944869;28;20198;-80
2022/04/14 03:17:18;;;;;;;23.83;9.07;;;10.70;65.10;;;;;;4946109;28;20216;-79
2022/04/14 03:19:46;;;;;;;19.90;8.97;;;10.70;65.00;;;;;;4945299;28;20197;-78
2022/04/14 03:22:14;;;;;;;23.43;9.73;;;10.70;65.20;;;;;;4946921;28;20738;-79
2022/04/14 03:24:43;;;;;;;29.40;10.93;;;10.70;65.40;;;;;;4946010;28;20210;-79
2022/04/14 03:27:12;;;;;;;25.90;9.70;;;10.60;65.40;;;;;;4945748;28;20733;-80
2022/04/14 03:29:41;;;;;;;20.60;9.63;;;10.60;65.50;;;;;;4945791;28;20652;-80
2022/04/14 03:32:12;;;;;;;29.80;9.93;;;10.60;65.50;;;;;;4944062;28;20197;-80
2022/04/14 03:34:43;;;;;;;23.97;9.17;;;10.60;65.50;;;;;;4948181;28;20190;-80
2022/04/14 03:37:12;;;;;;;21.47;7.77;;;10.60;65.50;;;;;;4947237;28;20189;-79
2022/04/14 03:39:43;;;;;;;18.07;9.80;;;10.50;65.80;;;;;;4945625;28;20728;-81
2022/04/14 03:42:12;;;;;;;24.77;8.87;;;10.50;65.80;;;;;;4945804;28;20290;-80
2022/04/14 03:44:41;;;;;;;21.17;8.93;;;10.50;65.70;;;;;;4944044;28;20197;-80
2022/04/14 03:47:09;;;;;;;23.67;9.83;;;10.50;65.80;;;;;;4944071;28;20209;-79
2022/04/14 03:49:38;;;;;;;19.70;9.93;;;10.50;66.00;;;;;;4945043;28;20214;-80
2022/04/14 03:52:07;;;;;;;25.30;9.47;;;10.50;66.20;;;;;;4946384;28;20233;-79
2022/04/14 03:54:35;;;;;;;21.80;9.77;;;10.50;66.20;;;;;;4944524;28;20208;-80
2022/04/14 03:57:04;;;;;;;20.27;8.97;;;10.50;66.20;;;;;;4946538;28;20232;-80
2022/04/14 03:59:34;;;;;;;24.23;10.10;;;10.50;66.10;;;;;;4945862;28;20209;-81
2022/04/14 04:02:03;;;;;;;18.57;9.80;;;10.50;66.20;;;;;;4944217;28;20195;-80
2022/04/14 04:04:32;;;;;;;22.50;9.40;;;10.50;66.10;;;;;;4946207;28;20344;-80
2022/04/14 04:07:00;;;;;;;18.03;10.53;;;10.50;66.00;;;;;;4943926;28;20194;-80
2022/04/14 04:09:32;;;;;;;20.17;9.83;;;10.50;65.90;;;;;;4945711;28;20197;-81
2022/04/14 04:12:01;;;;;;;22.93;10.50;;;10.50;65.80;;;;;;4944950;28;20295;-80
2022/04/14 04:14:29;;;;;;;17.87;10.33;;;10.50;66.10;;;;;;4944416;28;20201;-79
2022/04/14 04:17:02;;;;;;;20.03;9.57;;;10.50;66.10;;;;;;4946026;28;20264;-81
2022/04/14 04:19:30;;;;;;;27.70;10.20;;;10.50;66.10;;;;;;4944591;28;20198;-80
2022/04/14 04:21:59;;;;;;;21.67;10.00;;;10.50;66.20;;;;;;4944141;28;20201;-80
2022/04/14 04:24:27;;;;;;;18.80;9.90;;;10.50;66.40;;;;;;4945663;28;20963;-80
2022/04/14 04:26:56;;;;;;;27.23;10.47;;;10.50;66.30;;;;;;4945637;28;20210;-79
2022/04/14 04:29:24;;;;;;;23.10;9.87;;;10.50;66.30;;;;;;4945227;28;20206;-79
2022/04/14 04:31:52;;;;;;;23.47;9.93;;;10.60;66.30;;;;;;4944282;28;20406;-80
2022/04/14 04:34:22;;;;;;;25.70;10.90;;;10.60;66.10;;;;;;4943685;28;20209;-79
2022/04/14 04:36:50;;;;;;;23.67;10.80;;;10.60;66.30;;;;;;4946617;28;20855;-79
2022/04/14 04:39:19;;;;;;;32.07;11.83;;;10.60;66.50;;;;;;4945993;28;20783;-80
2022/04/14 04:41:48;;;;;;;23.87;10.73;;;10.60;66.40;;;;;;4945584;28;20667;-80
2022/04/14 04:44:16;;;;;;;26.47;11.23;;;10.70;66.50;;;;;;4946316;28;20202;-80
2022/04/14 04:46:45;;;;;;;26.97;12.10;;;10.70;66.60;;;;;;4946105;28;20206;-80
2022/04/14 04:49:13;;;;;;;30.80;10.90;;;10.70;66.60;;;;;;4947491;28;20202;-80
2022/04/14 04:51:43;;;;;;;22.17;10.20;;;10.80;66.70;;;;;;4945656;28;20217;-80
2022/04/14 04:54:11;;;;;;;27.10;10.40;;;10.80;66.70;;;;;;4946019;28;20205;-79
2022/04/14 04:56:40;;;;;;;26.00;10.70;;;10.90;66.80;;;;;;4944972;28;20237;-80
2022/04/14 04:59:09;;;;;;;21.60;10.37;;;10.90;66.70;;;;;;4944609;28;20206;-80
2022/04/14 05:01:37;;;;;;;26.57;9.93;;;11.00;66.80;;;;;;4945303;28;20203;-81
2022/04/14 05:04:06;;;;;;;21.80;10.63;;;11.00;66.70;;;;;;4946124;28;20201;-81
2022/04/14 05:06:34;;;;;;;24.40;10.63;;;11.10;66.70;;;;;;4943413;28;20257;-80
2022/04/14 05:09:04;;;;;;;27.33;10.13;;;11.10;66.60;;;;;;4945671;28;20201;-81
2022/04/14 05:11:37;;;;;;;30.53;10.07;;;11.20;66.30;;;;;;4944810;28;20243;-81
2022/04/14 05:14:05;;;;;;;25.50;9.77;;;11.30;66.30;;;;;;4944945;28;20202;-81
2022/04/14 05:16:36;;;;;;;23.30;9.93;;;11.40;66.20;;;;;;4944359;28;20909;-82
2022/04/14 05:19:10;;;;;;;20.73;9.57;;;11.40;65.90;;;;;;4945511;28;20210;-81
2022/04/14 05:21:39;;;;;;;25.20;9.67;;;11.50;65.80;;;;;;4946488;28;20193;-79
2022/04/14 05:24:09;;;;;;;20.43;9.73;;;11.60;65.60;;;;;;4947457;28;20888;-80
2022/04/14 05:26:37;;;;;;;22.70;10.07;;;11.60;65.30;;;;;;4950241;28;20202;-80
2022/04/14 05:29:06;;;;;;;23.67;11.70;;;11.70;65.20;;;;;;4947887;28;20195;-81
2022/04/14 05:31:34;;;;;;;19.80;10.10;;;11.80;65.20;;;;;;4948127;28;20209;-79
2022/04/14 05:34:03;;;;;;;25.57;10.83;;;11.80;65.10;;;;;;4950753;28;20222;-81
2022/04/14 05:36:32;;;;;;;18.97;9.37;;;11.90;65.00;;;;;;4949658;28;20860;-82
2022/04/14 05:39:03;;;;;;;21.60;10.03;;;12.00;64.80;;;;;;4949847;28;20206;-81
2022/04/14 05:41:34;;;;;;;20.90;9.37;;;12.10;64.70;;;;;;4954179;28;20200;-81
2022/04/14 05:44:02;;;;;;;23.10;9.17;;;12.20;64.60;;;;;;4947866;28;20284;-79
2022/04/14 05:46:36;;;;;;;20.97;9.23;;;12.20;64.30;;;;;;4946434;28;20260;-82
2022/04/14 05:49:08;;;;;;;21.50;9.13;;;12.30;63.80;;;;;;4948008;28;20205;-82
2022/04/14 05:52:04;;;;;;;20.20;8.70;;;12.40;63.50;;;;;;4948137;28;20237;-81
2022/04/14 05:57:51;;;;;;;;;;;;;;;;;;;;;
2022/04/14 06:00:20;;;;;;;27.47;9.30;;;12.70;63.40;;;;;;4947166;28;20202;-81
2022/04/14 06:02:51;;;;;;;25.63;10.50;;;12.80;63.30;;;;;;4947737;28;20891;-84
2022/04/14 06:05:21;;;;;;;21.13;9.33;;;12.90;63.50;;;;;;4945991;28;20264;-84
2022/04/14 06:07:51;;;;;;;28.03;9.47;;;13.00;63.60;;;;;;4946447;28;20197;-84
2022/04/14 06:10:21;;;;;;;29.60;10.30;;;13.10;63.50;;;;;;4947300;28;20760;-84
2022/04/14 06:12:55;;;;;;;24.30;8.97;;;13.20;63.10;;;;;;4945944;28;20249;-83
2022/04/14 06:15:26;;;;;;;24.30;8.80;;;13.20;63.00;;;;;;4946391;28;20197;-84
2022/04/14 06:17:58;;;;;;;20.10;9.17;;;13.30;62.80;;;;;;4915889;28;20210;-85
2022/04/14 06:20:26;;;;;;;18.03;8.60;;;13.40;62.70;;;;;;4946948;28;20205;-84
2022/04/14 06:22:58;;;;;;;20.00;8.53;;;13.50;62.50;;;;;;4946772;28;20237;-81
2022/04/14 06:25:33;;;;;;;25.10;8.67;;;13.70;62.60;;;;;;4945804;28;20899;-84
2022/04/14 06:28:08;;;;;;;20.57;8.53;;;13.70;62.30;;;;;;4948263;28;20186;-83
2022/04/14 06:30:36;;;;;;;15.70;8.23;;;13.90;62.00;;;;;;4944625;28;20194;-82
2022/04/14 06:33:17;;;;;;;15.87;7.70;;;14.00;61.50;;;;;;4947223;28;20218;-82
2022/04/14 06:35:45;;;;;;;20.83;7.13;;;14.10;61.00;;;;;;4947102;28;20225;-83
2022/04/14 06:38:16;;;;;;;15.10;8.03;;;14.20;60.70;;;;;;4947512;28;20209;-84
2022/04/14 06:40:47;;;;;;;14.70;7.50;;;14.30;60.40;;;;;;4945705;28;20208;-84
2022/04/14 06:43:17;;;;;;;20.93;7.93;;;14.50;60.00;;;;;;4945247;28;20193;-83
2022/04/14 06:45:46;;;;;;;24.43;7.53;;;14.60;59.70;;;;;;4945976;28;20293;-85
2022/04/14 06:48:16;;;;;;;22.77;7.10;;;14.70;59.10;;;;;;4946523;28;20293;-84
2022/04/14 06:50:46;;;;;;;12.43;6.40;;;14.80;59.00;;;;;;4946275;28;20617;-82
2022/04/14 06:53:17;;;;;;;16.17;7.50;;;14.90;59.00;;;;;;4946609;28;20311;-86
2022/04/14 06:55:48;;;;;;;16.30;6.70;;;15.00;58.70;;;;;;4947170;28;20234;-83
2022/04/14 06:58:18;;;;;;;12.80;6.07;;;15.10;58.40;;;;;;4945835;28;20852;-83
2022/04/14 07:00:51;;;;;;;15.57;5.83;;;15.20;58.20;;;;;;4946354;28;20221;-83
2022/04/14 07:03:26;;;;;;;13.32;5.57;;;15.40;58.70;;;;;;4944591;28;20457;-84
2022/04/14 07:05:56;;;;;;;11.57;5.40;;;15.40;57.20;;;;;;4946062;28;20569;-83
2022/04/14 07:08:25;;;;;;;8.60;4.60;;;15.60;56.60;;;;;;4944958;28;20214;-85
2022/04/14 07:10:53;;;;;;;13.27;5.20;;;15.70;55.80;;;;;;4948252;28;20229;-83
2022/04/14 07:13:23;;;;;;;10.10;4.00;;;15.80;55.30;;;;;;4947695;28;20222;-80
2022/04/14 07:15:52;;;;;;;10.17;4.33;;;15.80;54.90;;;;;;4949098;28;20240;-85
2022/04/14 07:18:20;;;;;;;14.57;4.53;;;16.00;54.70;;;;;;4943532;28;20849;-85
2022/04/14 07:20:49;;;;;;;8.97;5.27;;;16.00;52.60;;;;;;4946233;28;20196;-85
2022/04/14 07:23:19;;;;;;;10.87;3.87;;;16.10;53.10;;;;;;4946500;28;20197;-79
2022/04/14 07:25:47;;;;;;;9.53;4.63;;;16.30;52.20;;;;;;4944969;28;20817;-82
2022/04/14 07:28:16;;;;;;;10.38;4.07;;;16.40;52.40;;;;;;4943658;28;20453;-81
2022/04/14 07:30:54;;;;;;;9.03;4.20;;;16.60;50.80;;;;;;4949591;28;20256;-79
2022/04/14 07:33:22;;;;;;;6.20;3.40;;;16.70;50.90;;;;;;4947635;28;20249;-85
2022/04/14 07:35:52;;;;;;;8.27;4.60;;;16.70;49.20;;;;;;4946649;28;20210;-87
2022/04/14 07:38:21;;;;;;;8.57;4.33;;;16.80;48.90;;;;;;4947253;28;20574;-88
2022/04/14 07:40:50;;;;;;;14.07;6.35;;;16.90;49.30;;;;;;4944733;28;20538;-85
2022/04/14 07:43:20;;;;;;;12.97;5.80;;;17.10;51.00;;;;;;4948287;28;20197;-82
2022/04/14 07:45:49;;;;;;;9.77;5.77;;;17.10;51.10;;;;;;4947068;28;20728;-83
2022/04/14 07:48:21;;;;;;;11.93;6.07;;;17.20;51.40;;;;;;4948797;28;20189;-81
2022/04/14 07:50:50;;;;;;;8.30;3.93;;;17.30;51.60;;;;;;4953688;28;20230;-84
2022/04/14 07:53:19;;;;;;;11.07;5.23;;;17.40;49.90;;;;;;4949947;28;20217;-85
2022/04/14 07:55:47;;;;;;;10.80;4.90;;;17.50;50.20;;;;;;4951866;28;20239;-84
2022/04/14 07:58:18;;;;;;;8.10;3.80;;;17.60;50.40;;;;;;4949068;28;20721;-91
2022/04/14 08:00:47;;;;;;;15.80;5.07;;;17.70;49.80;;;;;;4953838;28;20206;-83
2022/04/14 08:03:16;;;;;;;10.17;5.20;;;17.80;49.60;;;;;;4948111;28;20198;-82
2022/04/14 08:05:48;;;;;;;9.57;4.30;;;17.90;49.20;;;;;;4949959;28;20260;-83
2022/04/14 08:08:18;;;;;;;7.60;4.37;;;18.00;48.30;;;;;;4951958;28;20202;-84
2022/04/14 08:10:49;;;;;;;10.47;4.93;;;18.10;48.10;;;;;;4952522;28;20198;-84
2022/04/14 08:13:18;;;;;;;9.40;4.40;;;18.20;47.90;;;;;;4953997;28;20225;-82
2022/04/14 08:15:49;;;;;;;6.10;3.37;;;18.20;47.90;;;;;;4954383;28;20241;-84
2022/04/14 08:18:18;;;;;;;10.07;3.40;;;18.30;46.90;;;;;;4949781;28;20224;-84
2022/04/14 08:20:51;;;;;;;6.77;3.23;;;18.40;46.10;;;;;;4951117;28;20294;-86
2022/04/14 08:23:19;;;;;;;6.73;3.53;;;18.50;45.20;;;;;;4949541;28;20235;-87
2022/04/14 08:25:48;;;;;;;9.37;3.40;;;18.50;45.10;;;;;;4950913;28;20221;-85
2022/04/14 08:28:40;;;;;;;9.67;3.63;;;18.60;45.10;;;;;;4946734;28;20457;-82
2022/04/14 08:31:10;;;;;;;6.37;3.07;;;18.70;43.70;;;;;;4947065;28;20194;-83
2022/04/14 08:33:43;;;;;;;5.50;3.00;;;18.80;43.60;;;;;;4947503;28;20306;-83
2022/04/14 08:36:15;;;;;;;9.20;3.87;;;18.80;43.10;;;;;;4945510;28;20717;-84
2022/04/14 08:38:47;;;;;;;5.97;3.47;;;18.90;42.40;;;;;;4946259;28;20730;-82
2022/04/14 08:41:21;;;;;;;11.60;4.30;;;18.90;42.80;;;;;;4945606;28;20205;-84
2022/04/14 08:43:57;;;;;;;6.00;3.53;;;19.00;43.20;;;;;;4947210;28;20214;-87
2022/04/14 08:46:28;;;;;;;8.93;3.93;;;19.10;43.20;;;;;;4946251;28;20214;-80
2022/04/14 08:48:58;;;;;;;7.60;3.50;;;19.10;43.10;;;;;;4945131;28;20202;-84
2022/04/14 08:51:29;;;;;;;7.63;3.80;;;19.20;43.10;;;;;;4947182;28;20197;-84
2022/04/14 08:53:58;;;;;;;7.20;3.70;;;19.20;42.20;;;;;;4946104;28;20297;-81
2022/04/14 08:56:46;;;;;;;6.67;3.37;;;19.20;41.40;;;;;;4945705;28;20230;-80
2022/04/14 08:59:18;;;;;;;6.57;3.50;;;19.30;42.00;;;;;;4948816;28;20189;-80
2022/04/14 09:01:47;;;;;;;7.33;3.27;;;19.20;40.60;;;;;;4948525;28;20202;-81
2022/04/14 09:04:16;;;;;;;8.67;3.03;;;19.30;41.50;;;;;;4949578;28;20277;-84
2022/04/14 09:06:46;;;;;;;8.13;2.93;;;19.30;41.10;;;;;;4951650;28;20293;-80
2022/04/14 09:09:14;;;;;;;7.10;2.93;;;19.30;40.50;;;;;;4951623;28;20205;-82
2022/04/14 09:11:45;;;;;;;7.00;3.30;;;19.40;40.70;;;;;;4956913;28;20206;-83
2022/04/14 09:14:20;;;;;;;8.80;2.97;;;19.50;40.90;;;;;;4951970;28;20230;-84
2022/04/14 09:16:52;;;;;;;12.07;3.23;;;19.60;40.50;;;;;;4953799;28;20886;-82
2022/04/14 09:19:22;;;;;;;6.03;2.83;;;19.60;40.70;;;;;;4954850;28;22632;-86
2022/04/14 09:25:11;;;;;;;9.17;3.13;;;19.80;40.80;;;;;;4931767;28;20204;-80
2022/04/14 09:27:40;;;;;;;9.10;2.77;;;19.80;38.60;;;;;;4949520;28;20206;-79
2022/04/14 09:30:18;;;;;;;4.73;2.63;;;19.90;38.90;;;;;;4950016;28;20208;-79
2022/04/14 09:32:47;;;;;;;5.40;3.00;;;19.90;38.10;;;;;;4948750;28;20200;-81
2022/04/14 09:35:17;;;;;;;6.10;3.20;;;20.00;37.80;;;;;;4950847;28;20204;-78
2022/04/14 09:38:00;;;;;;;6.97;3.33;;;20.10;38.60;;;;;;4946566;28;20668;-79
2022/04/14 09:40:30;;;;;;;7.13;3.20;;;20.10;38.20;;;;;;4948346;28;20598;-77
2022/04/14 09:42:58;;;;;;;5.37;3.00;;;20.10;37.80;;;;;;4946689;28;20200;-79
2022/04/14 09:45:29;;;;;;;8.90;3.40;;;20.10;37.60;;;;;;4950904;28;20202;-79
2022/04/14 09:48:07;;;;;;;11.07;3.57;;;20.10;37.40;;;;;;4949487;28;20221;-80
2022/04/14 09:50:40;;;;;;;9.53;3.50;;;20.20;38.30;;;;;;4949158;28;20194;-79
2022/04/14 09:53:12;;;;;;;9.70;3.97;;;20.20;38.30;;;;;;4948944;28;20202;-80
2022/04/14 09:55:42;;;;;;;12.53;4.50;;;20.20;38.50;;;;;;4949745;28;20238;-80
2022/04/14 09:58:16;;;;;;;8.37;3.67;;;20.20;38.60;;;;;;4948547;28;20205;-78
2022/04/14 10:00:45;;;;;;;7.77;4.00;;;20.30;39.00;;;;;;4951031;28;20719;-79
2022/04/14 10:03:16;;;;;;;7.83;3.60;;;20.40;39.20;;;;;;4947277;28;20224;-77
2022/04/14 10:05:46;;;;;;;6.90;3.30;;;20.40;38.80;;;;;;4949936;28;20209;-77
2022/04/14 10:08:17;;;;;;;9.10;3.63;;;20.50;39.30;;;;;;4947639;28;20204;-78
2022/04/14 10:10:47;;;;;;;8.27;3.93;;;20.50;39.50;;;;;;4949802;28;20664;-81
2022/04/14 10:13:22;;;;;;;9.73;4.37;;;20.60;39.40;;;;;;4950066;28;20859;-81
2022/04/14 10:15:52;;;;;;;7.37;3.73;;;20.60;39.30;;;;;;4949881;28;20269;-84
2022/04/14 10:18:21;;;;;;;9.90;3.87;;;20.70;38.90;;;;;;4948097;28;20908;-80
2022/04/14 10:20:56;;;;;;;7.10;3.80;;;20.70;38.90;;;;;;4948913;28;20272;-77
2022/04/14 10:23:28;;;;;;;8.20;3.60;;;20.70;39.00;;;;;;4948306;28;20217;-80
2022/04/14 10:26:04;;;;;;;6.93;3.50;;;20.80;38.60;;;;;;4948970;28;20221;-78
2022/04/14 10:28:32;;;;;;;8.75;3.20;;;20.90;38.60;;;;;;4947758;28;20207;-85
2022/04/14 10:31:02;;;;;;;8.90;3.40;;;20.90;37.10;;;;;;4947346;28;20198;-78
2022/04/14 10:33:35;;;;;;;6.13;3.33;;;20.90;37.00;;;;;;4947843;28;20517;-81
2022/04/14 10:36:03;;;;;;;18.85;4.40;;;21.00;38.00;;;;;;4948796;28;20202;-78
2022/04/14 10:38:38;;;;;;;7.05;3.25;;;21.00;37.90;;;;;;4947224;28;20197;-79
2022/04/14 10:41:13;;;;;;;5.07;2.88;;;21.10;38.30;;;;;;4948217;28;20205;-79
2022/04/14 10:43:46;;;;;;;5.80;2.78;;;21.10;37.50;;;;;;4948094;28;20884;-78
2022/04/14 10:46:16;;;;;;;9.75;2.78;;;21.20;38.10;;;;;;4947344;28;20236;-79
2022/04/14 10:48:47;;;;;;;7.60;3.38;;;21.20;38.30;;;;;;4945643;28;20210;-79
2022/04/14 10:51:21;;;;;;;7.15;3.47;;;21.20;38.50;;;;;;4945625;28;20802;-79
2022/04/14 10:54:01;;;;;;;5.35;2.92;;;21.30;38.60;;;;;;4947153;28;20216;-81
2022/04/14 10:57:01;;;;;;;11.60;3.63;;;21.30;37.50;;;;;;4945395;28;20238;-78
2022/04/14 10:59:45;;;;;;;4.93;2.70;;;21.40;37.90;;;;;;4947610;28;20234;-77
2022/04/14 11:02:14;;;;;;;6.15;2.88;;;21.40;37.90;;;;;;4945214;28;20205;-76
2022/04/14 11:04:53;;;;;;;6.13;2.63;;;21.50;37.70;;;;;;4945566;28;20205;-76
2022/04/14 11:07:22;;;;;;;6.90;3.50;;;21.60;37.90;;;;;;4943661;28;20909;-77
2022/04/14 11:09:59;;;;;;;5.47;2.83;;;21.60;38.10;;;;;;4946760;28;20771;-76
2022/04/14 11:12:32;;;;;;;5.30;3.00;;;21.70;37.60;;;;;;4945534;28;20190;-76
2022/04/14 11:15:02;;;;;;;7.03;3.10;;;21.70;37.60;;;;;;4944636;28;20218;-77
2022/04/14 11:17:57;;;;;;;7.53;2.85;;;21.80;37.60;;;;;;4946213;28;20206;-76
2022/04/14 11:20:56;;;;;;;5.03;2.80;;;21.80;37.50;;;;;;4945958;28;20673;-82
2022/04/14 11:23:29;;;;;;;4.57;2.45;;;21.80;37.90;;;;;;4933409;28;20658;-77
2022/04/14 11:26:12;;;;;;;5.20;2.63;;;21.80;37.80;;;;;;4946765;28;20194;-73
2022/04/14 11:28:46;;;;;;;5.00;2.70;;;21.80;37.60;;;;;;4946412;28;20193;-76
2022/04/14 11:31:27;;;;;;;7.45;3.20;;;21.80;37.80;;;;;;4947189;28;20440;-77
2022/04/14 11:33:58;;;;;;;6.93;2.75;;;21.80;37.40;;;;;;4945740;28;20217;-75
2022/04/14 11:36:43;;;;;;;7.20;2.78;;;21.90;37.70;;;;;;4895664;28;20329;-75
2022/04/14 11:39:22;;;;;;;5.25;2.63;;;22.00;38.30;;;;;;4944459;28;20202;-74
2022/04/14 11:41:53;;;;;;;5.55;2.80;;;22.10;38.40;;;;;;4945954;28;20281;-79
2022/04/14 11:44:23;;;;;;;5.00;2.80;;;22.10;37.60;;;;;;4947806;28;20198;-76
2022/04/14 11:46:54;;;;;;;5.80;2.92;;;22.10;37.10;;;;;;4945876;28;20209;-76
2022/04/14 11:49:24;;;;;;;4.68;2.55;;;22.20;37.50;;;;;;4945392;28;20202;-78
2022/04/14 11:51:54;;;;;;;4.85;2.50;;;22.30;37.90;;;;;;4950014;28;20194;-79
2022/04/14 11:54:23;;;;;;;4.63;2.60;;;22.30;37.60;;;;;;4950049;28;20218;-77
2022/04/14 11:57:10;;;;;;;8.02;2.60;;;22.30;37.40;;;;;;4942372;28;20264;-78
2022/04/14 11:59:41;;;;;;;5.95;2.40;;;22.40;37.00;;;;;;4947120;28;20682;-77
2022/04/14 12:02:11;;;;;;;6.55;2.42;;;22.40;37.50;;;;;;4948271;28;20262;-77
2022/04/14 12:04:42;;;;;;;5.13;2.78;;;22.40;37.50;;;;;;4946450;28;20198;-77
2022/04/14 12:07:10;;;;;;;4.97;2.17;;;22.40;37.40;;;;;;4947008;28;20194;-76
2022/04/14 12:09:40;;;;;;;5.88;2.30;;;22.50;37.10;;;;;;4946162;28;20206;-76
2022/04/14 12:12:12;;;;;;;6.32;2.35;;;22.50;37.90;;;;;;4946349;28;20321;-75
2022/04/14 12:14:42;;;;;;;3.75;2.35;;;22.50;37.10;;;;;;4944568;28;20503;-78
2022/04/14 12:17:11;;;;;;;4.60;2.30;;;22.60;37.30;;;;;;4944157;28;20233;-76
2022/04/14 12:19:45;;;;;;;7.43;2.38;;;22.60;36.50;;;;;;4942087;28;20452;-78
2022/04/14 12:22:15;;;;;;;3.67;2.28;;;22.70;36.80;;;;;;4947410;28;20205;-77
2022/04/14 12:24:51;;;;;;;6.38;2.47;;;22.70;36.00;;;;;;4943053;28;20197;-77
2022/04/14 12:27:24;;;;;;;7.53;2.47;;;22.80;37.00;;;;;;4943648;28;20201;-75
2022/04/14 12:29:53;;;;;;;9.20;2.55;;;22.80;37.20;;;;;;4946710;28;20202;-77
2022/04/14 12:32:26;;;;;;;5.80;2.28;;;22.80;36.50;;;;;;4944966;28;20208;-75
2022/04/14 12:34:55;;;;;;;6.43;2.50;;;22.80;37.20;;;;;;4947688;28;20217;-77
2022/04/14 12:37:34;;;;;;;6.60;3.22;;;22.90;38.00;;;;;;4948567;28;20197;-75
2022/04/14 12:40:11;;;;;;;4.68;2.25;;;23.00;36.90;;;;;;4948520;28;20194;-76
2022/04/14 12:42:43;;;;;;;3.30;1.90;;;23.00;36.90;;;;;;4949134;28;20942;-79
2022/04/14 12:45:12;;;;;;;4.85;2.10;;;23.00;35.90;;;;;;4947823;28;20208;-78
2022/04/14 12:47:41;;;;;;;9.63;2.13;;;23.10;35.80;;;;;;4948487;28;20217;-77
2022/04/14 12:50:11;;;;;;;3.50;1.85;;;23.10;36.90;;;;;;4947876;28;20194;-77
2022/04/14 12:52:40;;;;;;;5.00;2.00;;;23.20;36.50;;;;;;4948843;28;20322;-77
2022/04/14 12:55:10;;;;;;;3.60;2.00;;;23.30;36.60;;;;;;4947730;28;20239;-76
2022/04/14 12:57:38;;;;;;;5.28;2.53;;;23.40;36.50;;;;;;4945364;28;20218;-80
2022/04/14 13:00:11;;;;;;;5.50;2.50;;;23.40;36.60;;;;;;4947980;28;20203;-79
2022/04/14 13:02:41;;;;;;;5.10;2.22;;;23.50;36.50;;;;;;4946049;28;20568;-78
2022/04/14 13:05:12;;;;;;;6.68;2.10;;;23.60;36.50;;;;;;4945513;28;20203;-76